Maribel — LAGU6 — position and weather

sailwx.info

Track history (hours):
 
Tides and Currents Weather Stations Pressure Air Temp Water Temp Dewpoint Dewpoint Depression Visibility Wind Speed Wind Dir Waves Ship Positions

Maribel

Last reported at 2017-Jan-16 09:33 UTC. Time now 2017-Jan-17 02:56 UTC.
Position N 52°25' E 004°45'.

Length 228 m; draft 10 m.

Type: Ship. MMSI: 257872000.

Date/timePositionNaut miles runAvg speedWind from/ knotsBaromVisibWave heightAir tempDewpointWater temp
2017-Jan-16 09:33N 52°25' E 004°45'2 2.0
2017-Jan-16 08:33N 52°26' E 004°43'4 4.2
2017-Jan-16 07:34N 52°28' E 004°36'2 2.3
2017-Jan-16 06:34N 52°28' E 004°33'8 8.3
2017-Jan-16 05:34N 52°29' E 004°19'8 7.7
2017-Jan-16 04:34N 52°28' E 004°07'1 0.7
2017-Jan-16 03:34N 52°28' E 004°07'0 0.1
2017-Jan-16 02:33N 52°28' E 004°07'0 0.0
2017-Jan-16 01:33N 52°28' E 004°07'1 0.6
2017-Jan-16 00:34N 52°28' E 004°07'7 6.6
2017-Jan-15 23:33N 52°26' E 003°56'0 0.5
2017-Jan-15 22:33N 52°25' E 003°57'0 0.0
2017-Jan-15 21:34N 52°25' E 003°57'0 0.0
2017-Jan-15 20:34N 52°25' E 003°57'0 0.2
2017-Jan-15 19:34N 52°26' E 003°57'0 0.0
2017-Jan-15 18:34N 52°26' E 003°57'0 0.0
2017-Jan-15 17:34N 52°26' E 003°57'0 0.0
2017-Jan-15 16:34N 52°26' E 003°57'0 0.1
2017-Jan-15 15:34N 52°26' E 003°57'0 0.2
2017-Jan-15 14:33N 52°25' E 003°57'0 0.1
2017-Jan-15 13:34N 52°25' E 003°57'0 0.0
2017-Jan-15 12:33N 52°25' E 003°57'0 0.0
2017-Jan-15 11:33N 52°25' E 003°57'0 0.0
2017-Jan-15 10:34N 52°25' E 003°57'0 0.1
2017-Jan-15 09:34N 52°25' E 003°57'0 0.1
2017-Jan-15 08:29N 52°25' E 003°57'0 0.0
2017-Jan-15 07:31N 52°25' E 003°57'0 0.1
2017-Jan-15 06:33N 52°25' E 003°57'0 0.1
2017-Jan-15 05:34N 52°26' E 003°57'0 0.0
2017-Jan-15 04:34N 52°26' E 003°57'0 0.1
2017-Jan-15 03:34N 52°25' E 003°57'0 0.1
2017-Jan-15 02:34N 52°25' E 003°57'0 0.0
2017-Jan-15 01:34N 52°25' E 003°57'0 0.0
2017-Jan-15 00:34N 52°25' E 003°57'0 0.0
2017-Jan-14 23:34N 52°25' E 003°57'0 0.0
2017-Jan-14 22:33N 52°25' E 003°57'0 0.0
2017-Jan-14 21:34N 52°25' E 003°57'0 0.0
2017-Jan-14 20:32N 52°25' E 003°57'0 0.1
2017-Jan-14 19:33N 52°25' E 003°57'0 0.0
2017-Jan-14 18:31N 52°25' E 003°57'0 0.1
2017-Jan-14 17:33N 52°25' E 003°57'0 0.0
2017-Jan-14 16:33N 52°25' E 003°57'0 0.1
2017-Jan-14 15:34N 52°26' E 003°57'2 1.7
2017-Jan-14 14:33N 52°26' E 003°54'389 7.9
2017-Jan-12 13:29N 57°47' E 010°18'7 7.8
2017-Jan-12 12:33N 57°47' E 010°32'7 7.2
2017-Jan-12 11:33N 57°45' E 010°45'6 6.0
2017-Jan-12 10:34N 57°39' E 010°40'0 0.0
2017-Jan-12 09:33N 57°39' E 010°40'0 0.0
2017-Jan-12 08:33N 57°39' E 010°40'0 0.0
2017-Jan-12 07:33N 57°39' E 010°40'0 0.5
2017-Jan-12 06:34N 57°39' E 010°40'8 8.0
2017-Jan-12 05:34N 57°40' E 010°54'1110.5
2017-Jan-12 04:33N 57°35' E 011°12'1110.9
2017-Jan-12 03:33N 57°27' E 011°26'1111.2
2017-Jan-12 02:34N 57°17' E 011°33'1111.1
2017-Jan-12 01:33N 57°06' E 011°40'6711.2
2017-Jan-11 19:33N 56°02' E 011°06'1312.5
2017-Jan-11 18:31N 55°51' E 010°52'3511.9
2017-Jan-11 15:31N 55°16' E 011°04'1212.7
2017-Jan-11 14:33N 55°04' E 011°02'1313.3
2017-Jan-11 13:34N 54°53' E 010°51'1212.4
2017-Jan-11 12:34N 54°40' E 010°49'1211.8
2017-Jan-11 11:34N 54°36' E 011°08'1312.7
2017-Jan-11 10:34N 54°31' E 011°28'1312.6
2017-Jan-11 09:33N 54°27' E 011°49'1212.0
2017-Jan-11 08:34N 54°27' E 012°09'5911.2
2017-Jan-11 03:17N 54°58' E 013°36'912.0
2017-Jan-11 02:33N 55°01' E 013°50'1211.6
2017-Jan-11 01:33N 55°06' E 014°08'1111.5
2017-Jan-11 00:34N 55°15' E 014°21'1211.6
2017-Jan-10 23:33N 55°25' E 014°33'1211.7
2017-Jan-10 22:33N 55°31' E 014°50'1212.3
2017-Jan-10 21:33N 55°37' E 015°10'1611.9
2017-Jan-10 20:15N 55°41' E 015°36'9311.9
2017-Jan-10 12:26N 56°11' E 018°14'25511.7
2017-Jan-09 14:33N 59°35' E 023°03'1212.3
2017-Jan-09 13:33N 59°39' E 023°26'1212.3
2017-Jan-09 12:33N 59°42' E 023°50'1312.4
2017-Jan-09 11:32N 59°45' E 024°13'6412.1
2017-Jan-09 06:13N 59°59' E 026°19'911.8
2017-Jan-09 05:29N 60°01' E 026°35'1411.8
2017-Jan-09 04:16N 59°60' E 027°04'811.7
2017-Jan-09 03:33N 60°04' E 027°18'1211.7
2017-Jan-09 02:33N 60°10' E 027°38'1111.0
2017-Jan-09 01:33N 60°10' E 028°00'1212.1
2017-Jan-09 00:33N 60°06' E 028°23'10 9.9
2017-Jan-08 23:33N 59°58' E 028°36'9 9.3
2017-Jan-08 22:33N 59°50' E 028°26'8 8.0
2017-Jan-08 21:33N 59°42' E 028°25'0 0.0
2017-Jan-07 13:33N 59°42' E 028°26'1 0.9
2017-Jan-07 12:33N 59°41' E 028°25'5 5.3
2017-Jan-07 11:33N 59°47' E 028°24'1110.8
2017-Jan-07 10:33N 59°56' E 028°34'2 1.6
2017-Jan-07 09:33N 59°56' E 028°37'0 0.2
2017-Jan-07 08:33N 59°56' E 028°37'0 0.0
2017-Jan-07 07:33N 59°56' E 028°37'0 0.0
2017-Jan-07 06:33N 59°56' E 028°37'0 0.0
2017-Jan-07 05:33N 59°56' E 028°37'0 0.0
2017-Jan-07 04:34N 59°56' E 028°37'0 0.0
2017-Jan-07 03:34N 59°56' E 028°37'0 0.0
2017-Jan-07 02:33N 59°56' E 028°37'0 0.0
2017-Jan-07 01:33N 59°56' E 028°37'0 0.0
2017-Jan-07 00:33N 59°56' E 028°37'0 0.0
2017-Jan-06 23:33N 59°56' E 028°37'0 0.0
2017-Jan-06 22:33N 59°56' E 028°37'0 0.1
2017-Jan-06 21:33N 59°56' E 028°37'0 0.0
2017-Jan-06 20:33N 59°56' E 028°37'0 0.1
2017-Jan-06 19:34N 59°56' E 028°37'0 0.1
2017-Jan-06 18:33N 59°56' E 028°37'0 0.0
2017-Jan-06 17:33N 59°56' E 028°37'0 0.0
2017-Jan-06 16:34N 59°56' E 028°37'0 0.0
2017-Jan-06 15:34N 59°56' E 028°37'0 0.0
2017-Jan-06 14:33N 59°56' E 028°37'0 0.1
2017-Jan-06 13:33N 59°56' E 028°37'0 0.0
2017-Jan-06 12:33N 59°56' E 028°37'0 0.0
2017-Jan-06 11:33N 59°56' E 028°37'0 0.0
2017-Jan-06 10:33N 59°56' E 028°37'  
Track history (hours):
 
Tides and Currents Weather Stations Pressure Air Temp Water Temp Dewpoint Dewpoint Depression Visibility Wind Speed Wind Dir Waves Ship Positions

Maribel

Last reported at 2017-Jan-16 09:33 UTC. Time now 2017-Jan-17 02:56 UTC.
Position N 52°25' E 004°45'.

Length 228 m; draft 10 m.

Type: Ship. MMSI: 257872000.

Date/timePositionNaut miles runAvg speedWind from/ knotsBaromVisibWave heightAir tempDewpointWater temp
2017-Jan-16 09:33N 52°25' E 004°45'2 2.0
2017-Jan-16 08:33N 52°26' E 004°43'4 4.2
2017-Jan-16 07:34N 52°28' E 004°36'2 2.3
2017-Jan-16 06:34N 52°28' E 004°33'8 8.3
2017-Jan-16 05:34N 52°29' E 004°19'8 7.7
2017-Jan-16 04:34N 52°28' E 004°07'1 0.7
2017-Jan-16 03:34N 52°28' E 004°07'0 0.1
2017-Jan-16 02:33N 52°28' E 004°07'0 0.0
2017-Jan-16 01:33N 52°28' E 004°07'1 0.6
2017-Jan-16 00:34N 52°28' E 004°07'7 6.6
2017-Jan-15 23:33N 52°26' E 003°56'0 0.5
2017-Jan-15 22:33N 52°25' E 003°57'0 0.0
2017-Jan-15 21:34N 52°25' E 003°57'0 0.0
2017-Jan-15 20:34N 52°25' E 003°57'0 0.2
2017-Jan-15 19:34N 52°26' E 003°57'0 0.0
2017-Jan-15 18:34N 52°26' E 003°57'0 0.0
2017-Jan-15 17:34N 52°26' E 003°57'0 0.0
2017-Jan-15 16:34N 52°26' E 003°57'0 0.1
2017-Jan-15 15:34N 52°26' E 003°57'0 0.2
2017-Jan-15 14:33N 52°25' E 003°57'0 0.1
2017-Jan-15 13:34N 52°25' E 003°57'0 0.0
2017-Jan-15 12:33N 52°25' E 003°57'0 0.0
2017-Jan-15 11:33N 52°25' E 003°57'0 0.0
2017-Jan-15 10:34N 52°25' E 003°57'0 0.1
2017-Jan-15 09:34N 52°25' E 003°57'0 0.1
2017-Jan-15 08:29N 52°25' E 003°57'0 0.0
2017-Jan-15 07:31N 52°25' E 003°57'0 0.1
2017-Jan-15 06:33N 52°25' E 003°57'0 0.1
2017-Jan-15 05:34N 52°26' E 003°57'0 0.0
2017-Jan-15 04:34N 52°26' E 003°57'0 0.1
2017-Jan-15 03:34N 52°25' E 003°57'0 0.1
2017-Jan-15 02:34N 52°25' E 003°57'0 0.0
2017-Jan-15 01:34N 52°25' E 003°57'0 0.0
2017-Jan-15 00:34N 52°25' E 003°57'0 0.0
2017-Jan-14 23:34N 52°25' E 003°57'0 0.0
2017-Jan-14 22:33N 52°25' E 003°57'0 0.0
2017-Jan-14 21:34N 52°25' E 003°57'0 0.0
2017-Jan-14 20:32N 52°25' E 003°57'0 0.1
2017-Jan-14 19:33N 52°25' E 003°57'0 0.0
2017-Jan-14 18:31N 52°25' E 003°57'0 0.1
2017-Jan-14 17:33N 52°25' E 003°57'0 0.0
2017-Jan-14 16:33N 52°25' E 003°57'0 0.1
2017-Jan-14 15:34N 52°26' E 003°57'2 1.7
2017-Jan-14 14:33N 52°26' E 003°54'389 7.9
2017-Jan-12 13:29N 57°47' E 010°18'7 7.8
2017-Jan-12 12:33N 57°47' E 010°32'7 7.2
2017-Jan-12 11:33N 57°45' E 010°45'6 6.0
2017-Jan-12 10:34N 57°39' E 010°40'0 0.0
2017-Jan-12 09:33N 57°39' E 010°40'0 0.0
2017-Jan-12 08:33N 57°39' E 010°40'0 0.0
2017-Jan-12 07:33N 57°39' E 010°40'0 0.5
2017-Jan-12 06:34N 57°39' E 010°40'8 8.0
2017-Jan-12 05:34N 57°40' E 010°54'1110.5
2017-Jan-12 04:33N 57°35' E 011°12'1110.9
2017-Jan-12 03:33N 57°27' E 011°26'1111.2
2017-Jan-12 02:34N 57°17' E 011°33'1111.1
2017-Jan-12 01:33N 57°06' E 011°40'6711.2
2017-Jan-11 19:33N 56°02' E 011°06'1312.5
2017-Jan-11 18:31N 55°51' E 010°52'3511.9
2017-Jan-11 15:31N 55°16' E 011°04'1212.7
2017-Jan-11 14:33N 55°04' E 011°02'1313.3
2017-Jan-11 13:34N 54°53' E 010°51'1212.4
2017-Jan-11 12:34N 54°40' E 010°49'1211.8
2017-Jan-11 11:34N 54°36' E 011°08'1312.7
2017-Jan-11 10:34N 54°31' E 011°28'1312.6
2017-Jan-11 09:33N 54°27' E 011°49'1212.0
2017-Jan-11 08:34N 54°27' E 012°09'5911.2
2017-Jan-11 03:17N 54°58' E 013°36'912.0
2017-Jan-11 02:33N 55°01' E 013°50'1211.6
2017-Jan-11 01:33N 55°06' E 014°08'1111.5
2017-Jan-11 00:34N 55°15' E 014°21'1211.6
2017-Jan-10 23:33N 55°25' E 014°33'1211.7
2017-Jan-10 22:33N 55°31' E 014°50'1212.3
2017-Jan-10 21:33N 55°37' E 015°10'1611.9
2017-Jan-10 20:15N 55°41' E 015°36'9311.9
2017-Jan-10 12:26N 56°11' E 018°14'25511.7
2017-Jan-09 14:33N 59°35' E 023°03'1212.3
2017-Jan-09 13:33N 59°39' E 023°26'1212.3
2017-Jan-09 12:33N 59°42' E 023°50'1312.4
2017-Jan-09 11:32N 59°45' E 024°13'6412.1
2017-Jan-09 06:13N 59°59' E 026°19'911.8
2017-Jan-09 05:29N 60°01' E 026°35'1411.8
2017-Jan-09 04:16N 59°60' E 027°04'811.7
2017-Jan-09 03:33N 60°04' E 027°18'1211.7
2017-Jan-09 02:33N 60°10' E 027°38'1111.0
2017-Jan-09 01:33N 60°10' E 028°00'1212.1
2017-Jan-09 00:33N 60°06' E 028°23'10 9.9
2017-Jan-08 23:33N 59°58' E 028°36'9 9.3
2017-Jan-08 22:33N 59°50' E 028°26'8 8.0
2017-Jan-08 21:33N 59°42' E 028°25'0 0.0
2017-Jan-07 13:33N 59°42' E 028°26'1 0.9
2017-Jan-07 12:33N 59°41' E 028°25'5 5.3
2017-Jan-07 11:33N 59°47' E 028°24'1110.8
2017-Jan-07 10:33N 59°56' E 028°34'2 1.6
2017-Jan-07 09:33N 59°56' E 028°37'0 0.2
2017-Jan-07 08:33N 59°56' E 028°37'0 0.0
2017-Jan-07 07:33N 59°56' E 028°37'0 0.0
2017-Jan-07 06:33N 59°56' E 028°37'0 0.0
2017-Jan-07 05:33N 59°56' E 028°37'0 0.0
2017-Jan-07 04:34N 59°56' E 028°37'0 0.0
2017-Jan-07 03:34N 59°56' E 028°37'0 0.0
2017-Jan-07 02:33N 59°56' E 028°37'0 0.0
2017-Jan-07 01:33N 59°56' E 028°37'0 0.0
2017-Jan-07 00:33N 59°56' E 028°37'0 0.0
2017-Jan-06 23:33N 59°56' E 028°37'0 0.0
2017-Jan-06 22:33N 59°56' E 028°37'0 0.1
2017-Jan-06 21:33N 59°56' E 028°37'0 0.0
2017-Jan-06 20:33N 59°56' E 028°37'0 0.1
2017-Jan-06 19:34N 59°56' E 028°37'0 0.1
2017-Jan-06 18:33N 59°56' E 028°37'0 0.0
2017-Jan-06 17:33N 59°56' E 028°37'0 0.0
2017-Jan-06 16:34N 59°56' E 028°37'0 0.0
2017-Jan-06 15:34N 59°56' E 028°37'0 0.0
2017-Jan-06 14:33N 59°56' E 028°37'0 0.1
2017-Jan-06 13:33N 59°56' E 028°37'0 0.0
2017-Jan-06 12:33N 59°56' E 028°37'0 0.0
2017-Jan-06 11:33N 59°56' E 028°37'0 0.0
2017-Jan-06 10:33N 59°56' E 028°37'  

Dump ship's entire track history